Time;durP1;ratioP1;P1;durP2;ratioP2;P2;SDS_P1;SDS_P2;PMS_P1;PMS_P2;Temp;Humidity;BMP_temperature;BMP_pressure;BME280_temperature;BME280_humidity;BME280_pressure;Samples;Min_cycle;Max_cycle;Signal;HPM_P1;HPM_P2
2022/12/09 00:01:10;;;;;;;9.30;7.33;;;6.50;91.20;;;;;;953399;145;27281;-81
2022/12/09 00:03:37;;;;;;;9.17;7.20;;;6.50;91.20;;;;;;954737;146;27827;-81
2022/12/09 00:06:09;;;;;;;8.73;7.77;;;6.50;91.20;;;;;;954156;145;27364;-81
2022/12/09 00:08:35;;;;;;;8.87;7.53;;;6.40;91.20;;;;;;954782;146;27416;-81
2022/12/09 00:11:02;;;;;;;9.57;7.90;;;6.40;91.20;;;;;;955353;145;27287;-81
2022/12/09 00:13:29;;;;;;;9.43;8.20;;;6.40;91.60;;;;;;953381;146;27283;-80
2022/12/09 00:15:55;;;;;;;10.40;8.10;;;6.40;91.30;;;;;;955172;148;27419;-81
2022/12/09 00:18:22;;;;;;;11.07;8.93;;;6.40;91.30;;;;;;955918;145;27447;-81
2022/12/09 00:20:48;;;;;;;13.17;8.73;;;6.30;91.30;;;;;;954437;146;28536;-81
2022/12/09 00:23:15;;;;;;;10.47;8.97;;;6.30;91.40;;;;;;953667;148;27274;-81
2022/12/09 00:25:41;;;;;;;9.73;8.17;;;6.40;91.40;;;;;;954497;145;27316;-81
2022/12/09 00:28:08;;;;;;;9.33;7.77;;;6.30;91.40;;;;;;956877;145;27299;-81
2022/12/09 00:30:35;;;;;;;10.17;8.03;;;6.30;91.50;;;;;;955194;146;27447;-81
2022/12/09 00:33:01;;;;;;;10.37;8.10;;;6.30;91.50;;;;;;955715;146;28384;-81
2022/12/09 00:35:28;;;;;;;9.80;8.00;;;6.30;91.50;;;;;;955344;146;27312;-81
2022/12/09 00:37:54;;;;;;;10.43;7.70;;;6.30;91.60;;;;;;955098;146;27791;-81
2022/12/09 00:40:21;;;;;;;11.03;7.80;;;6.30;91.60;;;;;;955005;146;27367;-81
2022/12/09 00:42:48;;;;;;;10.30;8.70;;;6.30;91.60;;;;;;952635;146;27827;-81
2022/12/09 00:45:14;;;;;;;9.30;8.17;;;6.30;91.60;;;;;;954794;146;27355;-81
2022/12/09 00:47:41;;;;;;;10.27;8.23;;;6.30;91.60;;;;;;955139;146;27411;-81
2022/12/09 00:50:07;;;;;;;8.80;7.80;;;6.30;91.60;;;;;;955593;145;27289;-80
2022/12/09 00:52:34;;;;;;;9.17;8.07;;;6.30;91.70;;;;;;955585;145;27289;-81
2022/12/09 00:55:01;;;;;;;9.13;8.17;;;6.30;91.70;;;;;;954454;145;27437;-80
2022/12/09 00:57:27;;;;;;;9.63;7.97;;;6.30;91.60;;;;;;955145;145;27367;-80
2022/12/09 00:59:54;;;;;;;10.53;9.13;;;6.30;91.60;;;;;;954041;146;27338;-80
2022/12/09 01:02:20;;;;;;;10.37;8.63;;;6.30;91.60;;;;;;953634;145;27335;-80
2022/12/09 01:04:47;;;;;;;9.97;8.10;;;6.20;91.60;;;;;;958933;145;27373;-81
2022/12/09 01:07:13;;;;;;;11.10;7.90;;;6.30;91.70;;;;;;937455;148;27440;-81
2022/12/09 01:09:40;;;;;;;9.40;8.33;;;6.20;91.70;;;;;;956445;145;27503;-81
2022/12/09 01:12:07;;;;;;;10.20;8.23;;;6.20;91.70;;;;;;955314;146;27453;-81
2022/12/09 01:14:33;;;;;;;9.83;8.07;;;6.20;91.70;;;;;;954514;146;27732;-80
2022/12/09 01:17:00;;;;;;;9.50;8.23;;;6.20;91.80;;;;;;954539;146;27293;-81
2022/12/09 01:19:26;;;;;;;10.67;8.37;;;6.20;91.80;;;;;;956020;146;27391;-80
2022/12/09 01:21:54;;;;;;;10.53;7.93;;;6.20;91.80;;;;;;954901;145;27357;-81
2022/12/09 01:24:20;;;;;;;11.50;7.97;;;6.20;91.90;;;;;;938673;148;27356;-81
2022/12/09 01:26:46;;;;;;;8.70;7.43;;;6.10;91.90;;;;;;956131;146;27291;-80
2022/12/09 01:29:13;;;;;;;9.23;8.27;;;6.10;91.90;;;;;;955988;146;27360;-81
2022/12/09 01:31:39;;;;;;;10.43;8.13;;;6.10;91.90;;;;;;953708;146;27304;-81
2022/12/09 01:34:06;;;;;;;10.70;8.97;;;6.10;91.90;;;;;;942044;147;27336;-80
2022/12/09 01:36:32;;;;;;;9.50;7.93;;;6.10;92.00;;;;;;943127;147;27347;-81
2022/12/09 01:38:59;;;;;;;9.40;8.27;;;6.10;92.00;;;;;;942501;147;27247;-80
2022/12/09 01:41:26;;;;;;;10.20;7.87;;;6.10;92.00;;;;;;943810;147;27391;-81
2022/12/09 01:44:10;;;;;;;9.97;7.93;;;6.10;92.00;;;;;;941867;147;27320;-81
2022/12/09 01:46:37;;;;;;;10.73;8.57;;;6.10;92.00;;;;;;943275;147;27265;-81
2022/12/09 01:49:04;;;;;;;8.83;7.90;;;6.10;92.00;;;;;;941741;147;27456;-80
2022/12/09 01:51:30;;;;;;;9.13;7.53;;;6.10;92.00;;;;;;943265;147;27443;-80
2022/12/09 01:53:57;;;;;;;9.43;7.20;;;6.10;92.00;;;;;;943408;147;27300;-80
2022/12/09 01:56:26;;;;;;;10.70;8.33;;;6.00;92.10;;;;;;941306;147;27392;-80
2022/12/09 01:58:53;;;;;;;10.37;7.73;;;6.00;92.10;;;;;;941003;147;27289;-80
2022/12/09 02:01:19;;;;;;;9.37;7.57;;;6.00;92.10;;;;;;939768;147;27395;-80
2022/12/09 02:03:46;;;;;;;10.83;8.67;;;6.00;92.10;;;;;;941944;147;27483;-81
2022/12/09 02:06:13;;;;;;;8.40;7.40;;;6.00;92.10;;;;;;941500;147;27290;-80
2022/12/09 02:08:39;;;;;;;13.00;8.30;;;6.00;92.10;;;;;;942488;147;27310;-81
2022/12/09 02:11:06;;;;;;;9.27;7.97;;;6.00;92.10;;;;;;943805;147;27397;-80
2022/12/09 02:13:57;;;;;;;12.03;9.33;;;6.00;92.10;;;;;;943236;147;27290;-80
2022/12/09 02:16:23;;;;;;;9.80;8.33;;;6.00;92.20;;;;;;941619;147;27347;-82
2022/12/09 02:19:05;;;;;;;10.87;8.80;;;6.00;92.10;;;;;;941619;147;27452;-82
2022/12/09 02:21:37;;;;;;;10.00;8.43;;;5.90;92.10;;;;;;939955;147;27340;-81
2022/12/09 02:24:13;;;;;;;9.93;8.27;;;5.90;92.10;;;;;;941583;147;27278;-81
2022/12/09 02:26:45;;;;;;;11.73;8.53;;;5.90;92.10;;;;;;941027;147;27323;-81
2022/12/09 02:29:32;;;;;;;9.77;8.37;;;5.90;92.10;;;;;;941057;147;27346;-81
2022/12/09 02:32:02;;;;;;;9.77;8.07;;;5.80;92.20;;;;;;941350;147;27312;-81
2022/12/09 02:34:28;;;;;;;10.60;8.87;;;5.80;92.20;;;;;;951643;147;27800;-81
2022/12/09 02:36:58;;;;;;;9.77;8.53;;;5.80;92.20;;;;;;954099;145;27771;-81
2022/12/09 02:39:24;;;;;;;8.87;7.97;;;5.70;92.20;;;;;;954860;146;27427;-81
2022/12/09 02:41:51;;;;;;;9.93;8.20;;;5.70;92.20;;;;;;954908;146;27854;-81
2022/12/09 02:44:18;;;;;;;9.97;8.23;;;5.70;92.30;;;;;;953432;146;27388;-81
2022/12/09 02:46:44;;;;;;;11.10;8.37;;;5.70;92.30;;;;;;955616;146;27240;-81
2022/12/09 02:49:11;;;;;;;8.63;7.77;;;5.70;92.30;;;;;;954968;146;27295;-81
2022/12/09 02:51:40;;;;;;;9.50;7.77;;;5.60;92.30;;;;;;955511;145;27682;-81
2022/12/09 02:54:13;;;;;;;11.70;8.60;;;5.60;92.30;;;;;;953711;145;27426;-81
2022/12/09 02:56:39;;;;;;;9.93;7.80;;;5.60;92.30;;;;;;954759;146;27288;-81
2022/12/09 02:59:06;;;;;;;10.43;8.27;;;5.50;92.30;;;;;;954231;145;27335;-81
2022/12/09 03:01:41;;;;;;;11.47;8.80;;;5.50;92.40;;;;;;954540;146;27332;-81
2022/12/09 03:04:08;;;;;;;10.53;8.57;;;5.50;92.40;;;;;;953528;145;27335;-81
2022/12/09 03:06:34;;;;;;;11.13;8.83;;;5.40;92.40;;;;;;954441;146;27378;-81
2022/12/09 03:09:07;;;;;;;9.93;8.13;;;5.40;92.40;;;;;;953789;146;27294;-81
2022/12/09 03:11:33;;;;;;;9.30;8.13;;;5.40;92.60;;;;;;951393;146;27277;-81
2022/12/09 03:14:18;;;;;;;11.57;8.23;;;5.30;92.60;;;;;;952865;145;27432;-81
2022/12/09 03:16:56;;;;;;;11.87;8.63;;;5.30;92.60;;;;;;952819;146;27485;-80
2022/12/09 03:19:23;;;;;;;10.60;8.10;;;5.30;92.60;;;;;;956268;145;27348;-80
2022/12/09 03:21:49;;;;;;;8.80;7.37;;;5.20;92.70;;;;;;954173;146;27304;-80
2022/12/09 03:24:16;;;;;;;10.80;8.03;;;5.20;92.70;;;;;;953375;145;27413;-80
2022/12/09 03:26:43;;;;;;;9.83;8.20;;;5.20;92.80;;;;;;953056;145;27421;-80
2022/12/09 03:29:12;;;;;;;11.43;8.03;;;5.10;92.80;;;;;;955797;146;27441;-79
2022/12/09 03:31:38;;;;;;;12.67;8.63;;;5.10;92.80;;;;;;948806;148;27309;-79
2022/12/09 03:34:05;;;;;;;9.90;8.07;;;5.10;92.90;;;;;;953098;147;27374;-79
2022/12/09 03:36:34;;;;;;;10.13;8.20;;;5.00;92.90;;;;;;939099;148;27443;-80
2022/12/09 03:39:01;;;;;;;9.50;7.93;;;5.00;92.90;;;;;;946125;147;27505;-80
2022/12/09 03:41:30;;;;;;;9.57;7.83;;;4.90;92.90;;;;;;947121;147;27439;-80
2022/12/09 03:44:00;;;;;;;11.37;8.13;;;4.90;93.00;;;;;;946903;147;27338;-80
2022/12/09 03:46:26;;;;;;;10.13;7.93;;;4.80;93.00;;;;;;938494;147;27306;-80
2022/12/09 03:48:53;;;;;;;11.20;8.47;;;4.80;93.10;;;;;;960573;145;27403;-80
2022/12/09 03:51:25;;;;;;;9.93;8.10;;;4.70;93.10;;;;;;947894;148;27377;-80
2022/12/09 03:53:57;;;;;;;9.97;6.97;;;4.70;93.20;;;;;;955925;145;27299;-80
2022/12/09 03:56:24;;;;;;;9.07;7.97;;;4.70;93.20;;;;;;956302;148;27269;-80
2022/12/09 03:58:51;;;;;;;9.90;7.60;;;4.60;93.30;;;;;;942762;147;27466;-80
2022/12/09 04:01:17;;;;;;;8.03;7.00;;;4.60;93.30;;;;;;960569;145;27370;-80
2022/12/09 04:03:44;;;;;;;8.40;6.77;;;4.50;93.20;;;;;;960486;145;27297;-80
2022/12/09 04:06:10;;;;;;;9.33;7.43;;;4.50;93.10;;;;;;958839;145;27381;-80
2022/12/09 04:08:37;;;;;;;10.90;7.03;;;4.40;93.00;;;;;;960616;145;27343;-80
2022/12/09 04:11:04;;;;;;;8.03;7.20;;;4.40;92.90;;;;;;960720;145;27306;-80
2022/12/09 04:13:30;;;;;;;11.07;7.70;;;4.30;92.90;;;;;;959494;145;27451;-80
2022/12/09 04:15:57;;;;;;;10.20;7.60;;;4.20;92.80;;;;;;961085;145;27346;-80
2022/12/09 04:18:23;;;;;;;11.13;8.23;;;4.10;92.80;;;;;;959529;145;27368;-80
2022/12/09 04:20:50;;;;;;;8.87;7.93;;;4.10;92.90;;;;;;960898;145;27373;-80
2022/12/09 04:23:17;;;;;;;9.87;7.70;;;4.00;93.00;;;;;;961463;145;27417;-80
2022/12/09 04:25:43;;;;;;;8.53;7.63;;;3.90;93.10;;;;;;959687;145;27348;-80
2022/12/09 04:28:10;;;;;;;9.87;7.23;;;3.80;93.50;;;;;;961714;145;27341;-80
2022/12/09 04:30:36;;;;;;;8.33;6.87;;;3.70;92.90;;;;;;945771;147;27375;-80
2022/12/09 04:33:04;;;;;;;10.00;6.97;;;3.70;93.30;;;;;;943390;148;27314;-80
2022/12/09 04:35:31;;;;;;;9.07;7.07;;;3.60;93.40;;;;;;945974;145;27300;-80
2022/12/09 04:37:57;;;;;;;9.20;7.10;;;3.50;93.40;;;;;;941569;147;27794;-80
2022/12/09 04:40:24;;;;;;;7.07;6.23;;;3.50;93.80;;;;;;941789;147;27370;-80
2022/12/09 04:42:50;;;;;;;9.53;6.80;;;3.40;93.70;;;;;;941990;147;27356;-80
2022/12/09 04:45:17;;;;;;;10.40;7.50;;;3.30;93.70;;;;;;942109;147;27328;-80
2022/12/09 04:47:43;;;;;;;8.87;6.50;;;3.30;93.80;;;;;;942337;147;27316;-80
2022/12/09 04:50:10;;;;;;;9.03;7.47;;;3.20;93.90;;;;;;945129;147;27248;-80
2022/12/09 04:52:37;;;;;;;9.77;7.03;;;3.10;94.00;;;;;;940553;147;27376;-80
2022/12/09 04:55:03;;;;;;;8.50;7.00;;;3.10;94.10;;;;;;941934;147;27368;-80
2022/12/09 04:57:30;;;;;;;9.00;7.47;;;3.10;94.30;;;;;;942626;147;27325;-80
2022/12/09 04:59:56;;;;;;;8.27;6.23;;;3.00;94.50;;;;;;941033;147;27345;-80
2022/12/09 05:02:23;;;;;;;9.37;7.20;;;2.90;94.60;;;;;;944120;147;27292;-80
2022/12/09 05:04:50;;;;;;;7.90;7.10;;;2.90;94.80;;;;;;942726;147;27288;-80
2022/12/09 05:07:16;;;;;;;11.47;7.33;;;2.90;94.80;;;;;;941803;147;27462;-80
2022/12/09 05:09:43;;;;;;;9.10;7.23;;;2.90;94.90;;;;;;939405;147;27402;-80
2022/12/09 05:12:09;;;;;;;9.50;8.23;;;2.80;94.90;;;;;;942494;147;27405;-80
2022/12/09 05:14:36;;;;;;;9.17;7.43;;;2.80;94.90;;;;;;935580;148;27289;-80
2022/12/09 05:17:02;;;;;;;9.13;7.03;;;2.80;94.90;;;;;;927057;149;27334;-80
2022/12/09 05:19:29;;;;;;;9.03;7.63;;;2.70;94.90;;;;;;934988;148;27396;-80
2022/12/09 05:21:56;;;;;;;9.93;7.00;;;2.70;95.00;;;;;;929846;150;27363;-80
2022/12/09 05:24:22;;;;;;;9.50;7.23;;;2.70;95.00;;;;;;925860;150;27506;-80
2022/12/09 05:26:49;;;;;;;8.10;6.83;;;2.60;95.00;;;;;;939428;147;27440;-80
2022/12/09 05:29:15;;;;;;;7.93;6.80;;;2.60;95.00;;;;;;940890;146;27323;-80
2022/12/09 05:31:42;;;;;;;9.47;7.33;;;2.60;95.20;;;;;;918232;150;27289;-80
2022/12/09 05:34:09;;;;;;;11.83;7.23;;;2.50;95.30;;;;;;933798;149;27326;-80
2022/12/09 05:36:35;;;;;;;8.03;6.70;;;2.50;95.50;;;;;;934180;148;27429;-80
2022/12/09 05:39:02;;;;;;;9.80;7.67;;;2.50;95.60;;;;;;931539;152;27393;-80
2022/12/09 05:41:28;;;;;;;9.33;7.37;;;2.40;95.70;;;;;;932766;149;27360;-80
2022/12/09 05:43:55;;;;;;;9.40;7.30;;;2.40;95.90;;;;;;932259;152;27310;-80
2022/12/09 05:46:21;;;;;;;10.57;7.67;;;2.40;96.10;;;;;;932618;149;27338;-80
2022/12/09 05:48:48;;;;;;;10.33;8.40;;;2.40;96.30;;;;;;933139;149;27383;-80
2022/12/09 05:51:15;;;;;;;10.60;7.53;;;2.40;96.60;;;;;;931113;149;27386;-80
2022/12/09 05:53:41;;;;;;;11.23;7.97;;;2.40;97.40;;;;;;930035;152;27391;-80
2022/12/09 05:56:08;;;;;;;11.37;8.23;;;2.40;97.40;;;;;;939932;151;27385;-80
2022/12/09 05:58:34;;;;;;;9.40;7.37;;;2.50;97.90;;;;;;932028;152;27318;-80
2022/12/09 06:01:04;;;;;;;9.70;8.63;;;2.50;98.30;;;;;;932248;149;27392;-80
2022/12/09 06:03:30;;;;;;;10.83;8.57;;;2.60;98.60;;;;;;927227;152;27394;-80
2022/12/09 06:05:57;;;;;;;13.07;9.53;;;2.80;98.80;;;;;;930255;151;27345;-80
2022/12/09 06:08:23;;;;;;;11.33;8.70;;;2.80;99.30;;;;;;939652;148;27297;-80
2022/12/09 06:10:50;;;;;;;13.00;9.27;;;2.90;99.10;;;;;;930850;149;27332;-81
2022/12/09 06:13:17;;;;;;;14.70;9.57;;;3.10;99.30;;;;;;929871;152;27355;-80
2022/12/09 06:15:43;;;;;;;14.83;10.50;;;3.20;99.40;;;;;;931095;149;27442;-80
2022/12/09 06:18:10;;;;;;;13.83;10.97;;;3.30;99.50;;;;;;932339;152;27455;-80
2022/12/09 06:20:36;;;;;;;12.50;9.97;;;3.40;99.50;;;;;;931568;149;27311;-81
2022/12/09 06:23:03;;;;;;;14.60;10.37;;;3.50;99.40;;;;;;932118;152;27307;-80
2022/12/09 06:25:30;;;;;;;15.67;11.37;;;3.60;99.30;;;;;;930807;149;27366;-80
2022/12/09 06:27:56;;;;;;;13.30;10.67;;;3.70;99.10;;;;;;931819;152;27436;-80
2022/12/09 06:30:23;;;;;;;14.27;10.27;;;3.80;98.80;;;;;;930857;150;27459;-80
2022/12/09 06:32:49;;;;;;;14.90;11.27;;;3.90;98.40;;;;;;931097;152;27416;-80
2022/12/09 06:35:16;;;;;;;19.63;13.70;;;3.90;97.90;;;;;;932149;149;27389;-81
2022/12/09 06:37:43;;;;;;;15.10;12.13;;;3.90;97.40;;;;;;940963;151;27395;-80
2022/12/09 06:40:09;;;;;;;13.10;10.30;;;3.90;96.90;;;;;;929461;150;27350;-81
2022/12/09 06:42:36;;;;;;;10.27;8.63;;;3.90;96.50;;;;;;919285;150;27342;-80
2022/12/09 06:45:02;;;;;;;11.43;8.40;;;3.80;96.10;;;;;;941915;147;27363;-80
2022/12/09 06:47:29;;;;;;;10.73;8.17;;;3.80;95.80;;;;;;942555;147;27302;-80
2022/12/09 06:49:56;;;;;;;9.97;8.10;;;3.70;95.60;;;;;;941426;147;27302;-80
2022/12/09 06:52:22;;;;;;;11.43;8.80;;;3.60;95.40;;;;;;941712;147;27402;-80
2022/12/09 06:54:49;;;;;;;10.60;7.73;;;3.50;95.20;;;;;;942424;147;27358;-80
2022/12/09 06:57:15;;;;;;;8.80;7.47;;;3.40;95.10;;;;;;941280;147;27461;-80
2022/12/09 06:59:42;;;;;;;8.80;7.10;;;3.30;95.10;;;;;;942191;147;27362;-80
2022/12/09 07:02:08;;;;;;;9.37;7.27;;;3.30;95.10;;;;;;942079;147;27290;-80
2022/12/09 07:04:35;;;;;;;11.60;7.90;;;3.20;95.10;;;;;;941552;147;27267;-80
2022/12/09 07:07:02;;;;;;;9.63;7.50;;;3.10;95.10;;;;;;943258;147;27436;-80
2022/12/09 07:09:28;;;;;;;10.07;7.50;;;3.00;95.20;;;;;;941302;147;27391;-80
2022/12/09 07:11:55;;;;;;;9.47;7.83;;;2.90;95.30;;;;;;923478;150;27299;-80
2022/12/09 07:14:21;;;;;;;10.63;7.10;;;2.80;95.30;;;;;;942151;147;27606;-80
2022/12/09 07:16:48;;;;;;;10.33;7.00;;;2.80;95.50;;;;;;943161;147;27269;-80
2022/12/09 07:19:16;;;;;;;8.93;7.30;;;2.70;95.60;;;;;;942483;147;27321;-80
2022/12/09 07:21:41;;;;;;;11.43;8.60;;;2.60;95.60;;;;;;942757;147;27437;-80
2022/12/09 07:24:08;;;;;;;10.13;8.17;;;2.60;95.80;;;;;;942073;147;27274;-80
2022/12/09 07:26:34;;;;;;;9.53;7.77;;;2.60;96.10;;;;;;943003;147;27425;-80
2022/12/09 07:29:01;;;;;;;10.43;8.00;;;2.50;96.30;;;;;;941948;147;27273;-80
2022/12/09 07:31:27;;;;;;;9.43;8.07;;;2.50;96.50;;;;;;941481;147;27425;-80
2022/12/09 07:33:54;;;;;;;13.97;8.50;;;2.50;96.60;;;;;;942147;147;27317;-80
2022/12/09 07:36:21;;;;;;;12.73;8.30;;;2.40;96.70;;;;;;941272;147;27373;-80
2022/12/09 07:38:47;;;;;;;11.17;8.57;;;2.40;96.80;;;;;;947853;145;27410;-80
2022/12/09 07:41:19;;;;;;;11.93;8.83;;;2.40;96.90;;;;;;955944;145;27291;-80
2022/12/09 07:43:46;;;;;;;9.87;8.37;;;2.40;97.10;;;;;;954192;145;27363;-80
2022/12/09 07:46:15;;;;;;;10.73;8.13;;;2.40;97.30;;;;;;956198;145;27740;-80
2022/12/09 07:48:42;;;;;;;11.10;8.20;;;2.40;97.40;;;;;;953982;145;27405;-80
2022/12/09 07:51:08;;;;;;;13.90;9.03;;;2.40;97.40;;;;;;955001;145;27409;-80
2022/12/09 07:53:35;;;;;;;17.27;9.17;;;2.30;97.40;;;;;;944341;147;27352;-80
2022/12/09 07:56:05;;;;;;;11.70;8.60;;;2.40;97.60;;;;;;953555;146;27464;-80
2022/12/09 07:58:31;;;;;;;10.90;8.50;;;2.40;97.70;;;;;;955234;145;27329;-80
2022/12/09 08:00:58;;;;;;;13.47;10.03;;;2.40;97.90;;;;;;953327;146;27311;-80
2022/12/09 08:03:24;;;;;;;16.73;9.97;;;2.40;98.00;;;;;;953502;145;27803;-80
2022/12/09 08:05:51;;;;;;;14.03;9.97;;;2.40;98.10;;;;;;955339;145;27977;-80
2022/12/09 08:08:17;;;;;;;10.07;8.80;;;2.40;98.20;;;;;;954620;145;27495;-80
2022/12/09 08:10:45;;;;;;;13.07;9.93;;;2.50;98.40;;;;;;956562;145;27295;-80
2022/12/09 08:13:11;;;;;;;16.40;10.60;;;2.50;98.30;;;;;;956165;145;27315;-80
2022/12/09 08:15:37;;;;;;;12.20;9.93;;;2.50;98.30;;;;;;932654;149;27308;-80
2022/12/09 08:18:04;;;;;;;12.97;10.33;;;2.50;98.30;;;;;;953443;145;27408;-80
2022/12/09 08:20:30;;;;;;;13.87;10.40;;;2.60;98.40;;;;;;937286;148;27347;-80
2022/12/09 08:22:57;;;;;;;13.70;10.10;;;2.60;98.50;;;;;;941931;148;27322;-80
2022/12/09 08:25:24;;;;;;;13.03;10.53;;;2.60;98.60;;;;;;939059;148;27394;-80
2022/12/09 08:27:50;;;;;;;13.57;10.03;;;2.70;98.70;;;;;;936877;148;28204;-80
2022/12/09 08:30:17;;;;;;;16.10;11.70;;;2.70;98.90;;;;;;954408;145;27315;-80
2022/12/09 08:32:43;;;;;;;15.07;10.97;;;2.80;99.00;;;;;;933056;149;27424;-80
2022/12/09 08:35:13;;;;;;;15.20;11.50;;;2.80;99.00;;;;;;955233;145;27438;-80
2022/12/09 08:37:36;;;;;;;12.17;9.97;;;2.90;99.30;;;;;;954087;146;27460;-80
2022/12/09 08:40:03;;;;;;;15.60;10.93;;;3.00;99.60;;;;;;944824;147;28173;-80
2022/12/09 08:42:30;;;;;;;15.67;11.83;;;3.10;99.80;;;;;;928747;149;27364;-80
2022/12/09 08:44:56;;;;;;;14.77;11.80;;;3.20;99.60;;;;;;925340;150;27457;-80
2022/12/09 08:47:23;;;;;;;13.77;11.60;;;3.20;99.60;;;;;;932099;149;27318;-80
2022/12/09 08:49:49;;;;;;;13.73;10.67;;;3.30;99.40;;;;;;934256;148;27385;-80
2022/12/09 08:52:16;;;;;;;17.47;12.27;;;3.40;99.40;;;;;;933640;148;27292;-80
2022/12/09 08:54:43;;;;;;;16.63;12.80;;;3.50;99.30;;;;;;933085;149;27301;-80
2022/12/09 08:57:09;;;;;;;14.43;11.93;;;3.60;99.30;;;;;;932628;149;27413;-81
2022/12/09 08:59:36;;;;;;;14.13;12.07;;;3.60;99.10;;;;;;934543;149;27366;-81
2022/12/09 09:02:02;;;;;;;19.07;13.83;;;3.70;98.90;;;;;;933660;148;27373;-81
2022/12/09 09:04:29;;;;;;;14.93;12.57;;;3.70;98.70;;;;;;932776;148;27338;-81
2022/12/09 09:06:56;;;;;;;15.97;13.17;;;3.80;98.50;;;;;;932097;149;27319;-81
2022/12/09 09:09:22;;;;;;;26.20;12.77;;;3.90;98.30;;;;;;934414;149;27957;-81
2022/12/09 09:11:49;;;;;;;16.03;11.93;;;3.90;98.10;;;;;;934098;148;27421;-81
2022/12/09 09:14:15;;;;;;;13.93;10.83;;;3.90;98.00;;;;;;935073;149;28003;-81
2022/12/09 09:16:42;;;;;;;12.33;10.20;;;4.00;98.00;;;;;;935338;148;27365;-81
2022/12/09 09:19:08;;;;;;;12.40;10.47;;;4.00;97.90;;;;;;935108;149;27327;-81
2022/12/09 09:21:35;;;;;;;13.53;10.73;;;4.00;97.80;;;;;;934167;148;27396;-81
2022/12/09 09:24:02;;;;;;;13.63;9.93;;;4.00;97.70;;;;;;943567;147;27281;-81
2022/12/09 09:26:28;;;;;;;14.93;12.00;;;4.00;97.60;;;;;;941333;147;27402;-81
2022/12/09 09:28:55;;;;;;;12.37;9.30;;;4.10;97.60;;;;;;923038;150;27400;-81
2022/12/09 09:31:21;;;;;;;13.10;9.37;;;4.10;97.50;;;;;;935459;149;28162;-81
2022/12/09 09:33:48;;;;;;;12.57;9.27;;;4.10;97.50;;;;;;940042;147;27931;-81
2022/12/09 09:36:15;;;;;;;11.63;9.90;;;4.10;97.50;;;;;;920000;151;27302;-81
2022/12/09 09:38:41;;;;;;;12.03;10.03;;;4.20;97.40;;;;;;944198;147;27291;-81
2022/12/09 09:41:08;;;;;;;13.53;9.63;;;4.20;97.30;;;;;;926829;150;27419;-81
2022/12/09 09:43:34;;;;;;;13.23;9.17;;;4.20;97.20;;;;;;935496;147;27329;-81
2022/12/09 09:46:01;;;;;;;14.73;9.43;;;4.20;97.00;;;;;;946968;147;27353;-81
2022/12/09 09:48:27;;;;;;;14.07;10.37;;;4.30;97.00;;;;;;947653;149;27385;-81
2022/12/09 09:51:00;;;;;;;12.53;9.70;;;4.30;97.00;;;;;;950710;147;27922;-81
2022/12/09 09:53:26;;;;;;;11.73;8.97;;;4.30;97.00;;;;;;948131;149;27368;-81
2022/12/09 09:56:02;;;;;;;10.77;9.27;;;4.30;97.00;;;;;;950375;148;27414;-79
2022/12/09 09:58:37;;;;;;;11.60;9.50;;;4.30;97.00;;;;;;948986;147;27376;-79
2022/12/09 10:01:10;;;;;;;10.43;9.30;;;4.30;97.10;;;;;;949259;149;27332;-81
2022/12/09 10:03:42;;;;;;;10.67;8.93;;;4.30;97.30;;;;;;949589;147;27485;-81
2022/12/09 10:06:08;;;;;;;10.87;9.10;;;4.40;97.40;;;;;;949667;149;27486;-81
2022/12/09 10:08:35;;;;;;;13.17;9.23;;;4.40;97.60;;;;;;948533;147;27333;-81
2022/12/09 10:11:14;;;;;;;11.43;9.13;;;4.50;97.80;;;;;;937166;149;27314;-81
2022/12/09 10:13:53;;;;;;;11.83;9.70;;;4.60;98.10;;;;;;948759;147;28279;-81
2022/12/09 10:16:34;;;;;;;11.80;8.73;;;4.70;98.40;;;;;;948311;149;27343;-81
2022/12/09 10:19:04;;;;;;;9.97;8.60;;;4.80;98.50;;;;;;933844;149;27495;-81
2022/12/09 10:21:30;;;;;;;11.67;8.33;;;4.90;98.60;;;;;;929450;150;27364;-82
2022/12/09 10:23:57;;;;;;;12.63;9.07;;;5.10;98.90;;;;;;924701;151;27828;-82
2022/12/09 10:26:23;;;;;;;11.03;8.97;;;5.20;98.90;;;;;;948237;149;27436;-82
2022/12/09 10:28:52;;;;;;;12.77;8.70;;;5.40;98.80;;;;;;948144;149;27313;-80
2022/12/09 10:31:17;;;;;;;11.13;9.10;;;5.50;98.70;;;;;;950169;147;27911;-80
2022/12/09 10:33:43;;;;;;;10.33;7.83;;;5.70;98.50;;;;;;950215;147;27737;-81
2022/12/09 10:36:25;;;;;;;10.33;8.37;;;5.80;98.20;;;;;;949341;149;27409;-81
2022/12/09 10:38:51;;;;;;;8.93;7.87;;;6.00;97.80;;;;;;947167;148;27345;-81
2022/12/09 10:43:33;;;;;;;9.73;8.67;;;6.10;97.30;;;;;;944516;147;27393;-81
2022/12/09 10:43:50;;;;;;;9.40;7.90;;;6.20;96.80;;;;;;941858;147;27426;-81
2022/12/09 10:46:22;;;;;;;11.30;8.60;;;6.40;96.30;;;;;;940903;147;27361;-81
2022/12/09 10:48:46;;;;;;;9.70;7.40;;;6.40;95.90;;;;;;943591;147;27294;-81
2022/12/09 10:51:15;;;;;;;10.87;8.53;;;6.50;95.70;;;;;;944370;147;27331;-81
2022/12/09 10:53:48;;;;;;;9.40;8.43;;;6.60;95.40;;;;;;924486;150;27376;-81
2022/12/09 10:56:33;;;;;;;11.13;8.23;;;6.70;95.20;;;;;;932045;149;27407;-81
2022/12/09 10:59:11;;;;;;;10.03;8.03;;;6.80;94.90;;;;;;941389;147;27401;-81
2022/12/09 11:01:47;;;;;;;9.27;7.53;;;6.90;94.50;;;;;;941397;147;27364;-81
2022/12/09 11:04:13;;;;;;;13.87;7.70;;;6.90;94.10;;;;;;941471;147;27346;-81
2022/12/09 11:06:40;;;;;;;9.03;7.90;;;6.90;94.00;;;;;;942221;147;27438;-81
2022/12/09 11:09:06;;;;;;;9.13;8.13;;;7.00;93.80;;;;;;943291;147;28141;-81
2022/12/09 11:11:39;;;;;;;10.03;7.97;;;7.00;93.60;;;;;;940550;147;27360;-81
2022/12/09 11:14:26;;;;;;;8.53;7.20;;;7.00;93.40;;;;;;940269;147;27412;-81
2022/12/09 11:16:53;;;;;;;8.20;7.33;;;7.10;93.20;;;;;;941541;147;27349;-81
2022/12/09 11:19:29;;;;;;;8.23;7.40;;;7.10;92.90;;;;;;940496;147;27372;-81
2022/12/09 11:21:55;;;;;;;8.10;7.27;;;7.10;92.70;;;;;;941092;147;27338;-81
2022/12/09 11:24:23;;;;;;;8.30;7.43;;;7.10;92.70;;;;;;925959;147;27345;-81
2022/12/09 11:26:48;;;;;;;11.57;7.80;;;7.10;92.80;;;;;;941622;147;27376;-81
2022/12/09 11:29:16;;;;;;;10.23;7.53;;;7.10;92.70;;;;;;940008;147;27286;-81
2022/12/09 11:31:41;;;;;;;7.53;6.80;;;7.20;92.60;;;;;;941660;147;28073;-81
2022/12/09 11:34:14;;;;;;;10.13;7.60;;;7.20;92.30;;;;;;943039;147;27443;-81
2022/12/09 11:36:49;;;;;;;9.23;7.17;;;7.30;92.40;;;;;;939256;148;27333;-81
2022/12/09 11:39:28;;;;;;;9.43;8.10;;;7.30;92.40;;;;;;939430;148;27269;-81
2022/12/09 11:44:42;;;;;;;8.93;7.47;;;7.50;92.10;;;;;;939052;148;27417;-81
2022/12/09 11:47:14;;;;;;;20.37;16.70;;;7.50;92.10;;;;;;928964;148;27343;-81
2022/12/09 11:49:53;;;;;;;11.87;9.47;;;7.60;92.00;;;;;;938333;148;27443;-81
2022/12/09 11:52:19;;;;;;;9.57;8.10;;;7.60;91.80;;;;;;935874;148;27371;-81
2022/12/09 11:55:04;;;;;;;9.13;7.63;;;7.70;91.50;;;;;;937212;149;27473;-81
2022/12/09 11:57:39;;;;;;;10.63;7.70;;;7.70;91.30;;;;;;937842;148;27459;-81
2022/12/09 12:00:06;;;;;;;9.47;7.77;;;7.70;91.00;;;;;;937456;149;27269;-81
2022/12/09 12:02:54;;;;;;;9.57;7.80;;;7.70;90.70;;;;;;928730;149;27319;-82
2022/12/09 12:05:23;;;;;;;9.20;8.13;;;7.70;90.60;;;;;;936993;149;27257;-81
2022/12/09 12:07:56;;;;;;;8.93;8.00;;;7.60;90.60;;;;;;936824;149;27450;-81
2022/12/09 12:10:22;;;;;;;8.57;7.37;;;7.60;90.40;;;;;;938181;149;27805;-81
2022/12/09 12:13:19;;;;;;;58.87;31.60;;;7.60;90.30;;;;;;936697;149;27925;-82
2022/12/09 12:15:55;;;;;;;114.13;54.37;;;7.50;90.30;;;;;;937343;149;27371;-82
2022/12/09 12:18:21;;;;;;;26.53;16.47;;;7.50;90.20;;;;;;939317;147;27739;-81
2022/12/09 12:20:57;;;;;;;21.07;13.70;;;7.50;90.10;;;;;;935531;148;27463;-81
2022/12/09 12:23:35;;;;;;;13.27;10.00;;;7.40;90.10;;;;;;934249;148;27434;-82
2022/12/09 12:26:11;;;;;;;11.43;9.27;;;7.40;89.80;;;;;;935007;148;27385;-82
2022/12/09 12:28:40;;;;;;;12.00;8.73;;;7.30;89.70;;;;;;933184;148;27816;-82
2022/12/09 12:31:34;;;;;;;9.40;8.20;;;7.20;89.50;;;;;;932699;148;27480;-82
2022/12/09 12:34:01;;;;;;;9.00;8.03;;;7.20;89.40;;;;;;926044;148;27368;-82
2022/12/09 12:36:33;;;;;;;7.93;7.13;;;7.00;89.40;;;;;;934790;148;27901;-82
2022/12/09 12:39:12;;;;;;;11.33;7.60;;;7.00;89.50;;;;;;931842;148;28247;-82
2022/12/09 12:41:57;;;;;;;9.27;7.23;;;6.90;89.50;;;;;;934440;148;27437;-82
2022/12/09 12:47:48;;;;;;;8.50;7.27;;;6.80;89.60;;;;;;934636;148;27318;-81
2022/12/09 12:50:18;;;;;;;12.27;9.77;;;6.70;89.80;;;;;;933887;148;27509;-81
2022/12/09 12:53:11;;;;;;;10.03;8.33;;;6.70;90.10;;;;;;935108;148;27367;-81
2022/12/09 12:55:47;;;;;;;8.80;7.90;;;6.60;90.20;;;;;;943876;147;27416;-81
2022/12/09 12:58:35;;;;;;;9.07;7.43;;;6.60;90.30;;;;;;942226;147;27343;-82
2022/12/09 13:01:02;;;;;;;9.47;7.37;;;6.50;90.30;;;;;;941008;147;27440;-81
2022/12/09 13:03:53;;;;;;;8.87;7.13;;;6.50;90.30;;;;;;925638;150;27444;-81